الصفحة الرئيسية
METAR-TAF:

METAR-TAF

مطار :

حيدر أباد, الهند

دائرة عرض: 17-27N, خط طول: 078-28E, ارتفاع: 530 متر

مراقبة الطقس الحالي

تاريخ ووقت الإصدار 22 دقيقة قبل الساعة 06:00UTC
ريح 6 عقدة من الشرق
درجة الحرارة 34°درجة مئوية
الرطوبة 47%
ضغط 1018 hPa
الرؤية: 6000 متر

METAR: VOHY 310600Z 09006KT 6000 NSC 34/21 Q1018 NOSIG

زمن: 11:52 (06:22 UTC)

توقعات

تاريخ ووقت الإصدار 1ساعة و 22 دقيقة قبل الساعة 05:00UTC
التوقعات صالحة من31 الساعة 06 UTC إلى 31 الساعة 15 UTC
ريح 6 عقدة من الشرق/الشمال الشرقي
الرؤية: 6000 متر
غيوم قليلة على ارتفاع 1500 قدم
غيوم متفرقة على ارتفاع 2500 قدم

TAF: VOHY 310500Z 3106/3115 07006KT 6000 FEW015 SCT025

أرصاد الطقس والتوقعات من أكثر من 4000 مطار (تقارير الطقس للمطار METAR والتنبؤ بالطقس بالمطارTAF).

المحطات المتاحة هي النقط الصفراء والحمراء على الخريطة.

حرك المؤشر فوق النقطة لمعرفة اسم المحطة.

ثم انقر لمعرفة أرصاد وتوقعات الطقس.

لتغيير الخارطة: اضغط على الأزرار الخضراء مع رمز الصليب الأسود للتكبير. على الزر الأخضر مع شرطة للتصغير، أو على الأسهم الخضراء للخرائط المجاورة.


METAR-TAF: